Elwood, NE

2:21 AM CDT on September 25, 2016 (GMT -0500)
Mallard Bay | | Change Station

Elev 2623 ft 40.68 °N, 99.86 °W | Updated 22 hours ago

Clear
Clear
53 °F
Feels Like 53 °F
N
14
Wind Variable Wind from NW
Gusts 26 mph

Today
High -- | Low -- °F
--% Chance of Precip.
Yesterday
High -- | Low -- °F
Precip. -- in
Pressure 30.13 in
Visibility 10.0 miles
Clouds Clear
Dew Point 42 °F
Humidity 65%
Rainfall in
Snow Depth Not available.
7:30 AM 7:30 PM
Waning Crescent, 30% visible
METAR KLXN 250715Z AUTO 31010KT 10SM CLR 12/05 A3013 RMK AO2 T01220053
Pressure 30.13 in
Visibility 10.0 miles
Clouds Clear
Dew Point 42 °F
Humidity 65%
Rainfall in
Snow Depth Not available.
7:30 AM 7:30 PM
Waning Crescent, 30% visible
METAR KLXN 250715Z AUTO 31010KT 10SM CLR 12/05 A3013 RMK AO2 T01220053

10-Day Weather Forecast

Almanac

Astronomy

Sep. 25, 2016 Rise Set
Actual Time
Civil Twilight
Nautical Twilight
Astronomical Twilight
Moon
Length of Visible Light
Length of Day
Tomorrow will be .
, % of the Moon is Illuminated

Today's Extremes

State Highs State Lows

Community

WunderPhotos

Upload Photos

1,941,554 photos uploaded!

WunderBlog® & News

Nearby

Air Quality

  Air Quality AQ Index Pollutant
Not available.

Snow Depth

Station Depth Elevation

Earthquake Activity

City Distance Mag. Time & Date
Minimum magnitude displayed is 2.5.

Coastal Water Temperatures

Place Temperature

Stations

Nearby Weather Stations

Station Location Temp. Windchill Dew Point Humidity Wind Precip. Elev Updated Type
                   

Watches & Warnings

There are currently no watches in effect.